createdAt,value
2022-07-30T00:01:17.480Z,5.18
2022-07-30T00:03:44.157Z,5.60
2022-07-30T00:06:10.763Z,6.35
2022-07-30T00:08:37.290Z,4.93
2022-07-30T00:11:03.903Z,9.13
2022-07-30T00:13:30.842Z,5.50
2022-07-30T00:15:57.430Z,10.27
2022-07-30T00:18:24.021Z,6.65
2022-07-30T00:20:50.560Z,7.82
2022-07-30T00:23:18.208Z,14.32
2022-07-30T00:25:44.759Z,11.85
2022-07-30T00:28:11.389Z,9.77
2022-07-30T00:30:38.902Z,5.47
2022-07-30T00:33:05.612Z,6.38
2022-07-30T00:35:35.159Z,8.52
2022-07-30T00:38:01.734Z,5.75
2022-07-30T00:40:28.372Z,11.20
2022-07-30T00:42:55.012Z,8.13
2022-07-30T00:45:21.806Z,9.50
2022-07-30T00:47:48.360Z,12.60
2022-07-30T00:50:16.085Z,10.00
2022-07-30T00:52:43.255Z,9.05
2022-07-30T00:55:12.133Z,10.25
2022-07-30T00:57:39.486Z,7.03
2022-07-30T01:00:09.642Z,12.40
2022-07-30T01:02:36.271Z,5.32
2022-07-30T01:05:02.864Z,5.55
2022-07-30T01:07:29.416Z,4.53
2022-07-30T01:09:56.074Z,7.22
2022-07-30T01:12:26.592Z,8.38
2022-07-30T01:14:55.476Z,8.13
2022-07-30T01:17:22.075Z,6.22
2022-07-30T01:19:49.778Z,6.13
2022-07-30T01:22:24.343Z,5.60
2022-07-30T01:25:05.936Z,5.53
2022-07-30T01:27:50.440Z,4.97
2022-07-30T01:30:20.385Z,4.43
2022-07-30T01:32:47.627Z,4.75
2022-07-30T01:35:15.408Z,7.18
2022-07-30T01:37:44.621Z,7.07
2022-07-30T01:40:12.838Z,8.60
2022-07-30T01:42:40.737Z,4.80
2022-07-30T01:45:09.118Z,5.05
2022-07-30T01:47:38.748Z,7.50
2022-07-30T01:50:10.966Z,6.28
2022-07-30T01:52:38.497Z,4.78
2022-07-30T01:55:11.631Z,9.75
2022-07-30T01:57:47.042Z,10.88
2022-07-30T02:00:14.276Z,8.50
2022-07-30T02:02:41.367Z,6.03
2022-07-30T02:05:09.187Z,5.68
2022-07-30T02:07:42.257Z,4.88
2022-07-30T02:10:14.182Z,5.75
2022-07-30T02:12:48.505Z,6.60
2022-07-30T02:15:23.679Z,5.47
2022-07-30T02:18:00.761Z,6.68
2022-07-30T02:20:30.168Z,7.03
2022-07-30T02:23:06.978Z,4.97
2022-07-30T02:25:35.823Z,6.80
2022-07-30T02:28:08.000Z,8.23
2022-07-30T02:30:37.811Z,5.60
2022-07-30T02:33:10.705Z,8.75
2022-07-30T02:35:38.544Z,6.85
2022-07-30T02:38:06.724Z,6.18
2022-07-30T02:40:33.400Z,9.03
2022-07-30T02:43:01.275Z,10.88
2022-07-30T02:45:30.675Z,4.95
2022-07-30T02:48:01.503Z,7.82
2022-07-30T02:50:29.769Z,6.10
2022-07-30T02:52:58.895Z,5.10
2022-07-30T02:57:55.261Z,7.93
2022-07-30T03:00:23.754Z,4.40
2022-07-30T03:02:52.841Z,6.90
2022-07-30T03:05:24.848Z,6.28
2022-07-30T03:07:52.613Z,10.45
2022-07-30T03:10:19.494Z,8.70
2022-07-30T03:12:47.025Z,7.07
2022-07-30T03:15:14.471Z,4.05
2022-07-30T03:17:44.786Z,5.40
2022-07-30T03:20:15.522Z,4.65
2022-07-30T03:22:45.350Z,5.45
2022-07-30T03:25:16.574Z,5.05
2022-07-30T03:27:43.998Z,6.03
2022-07-30T03:30:12.291Z,8.30
2022-07-30T03:32:39.712Z,9.85
2022-07-30T03:35:16.788Z,6.10
2022-07-30T03:37:44.566Z,5.13
2022-07-30T03:40:11.667Z,5.78
2022-07-30T03:42:38.983Z,8.90
2022-07-30T03:45:08.001Z,4.25
2022-07-30T03:50:04.050Z,3.58
2022-07-30T03:52:34.045Z,8.48
2022-07-30T03:55:02.978Z,5.28
2022-07-30T03:57:30.248Z,10.00
2022-07-30T03:59:56.840Z,5.47
2022-07-30T04:02:23.386Z,4.13
2022-07-30T04:04:49.982Z,4.60
2022-07-30T04:07:16.659Z,4.47
2022-07-30T04:09:43.233Z,6.30
2022-07-30T04:12:09.853Z,7.93
2022-07-30T04:14:41.820Z,5.10
2022-07-30T04:17:21.832Z,5.13
2022-07-30T04:19:53.313Z,7.13
2022-07-30T04:22:30.441Z,7.88
2022-07-30T04:24:58.505Z,7.57
2022-07-30T04:27:25.941Z,4.50
2022-07-30T04:29:55.892Z,4.25
2022-07-30T04:32:22.911Z,6.20
2022-07-30T04:34:51.452Z,6.97
2022-07-30T04:37:20.050Z,11.80
2022-07-30T04:39:46.676Z,6.05
2022-07-30T04:42:13.572Z,5.05
2022-07-30T04:44:40.125Z,7.15
2022-07-30T04:47:06.828Z,6.63
2022-07-30T04:49:34.847Z,7.47
2022-07-30T04:52:03.505Z,8.77
2022-07-30T04:54:38.973Z,8.43
2022-07-30T04:57:07.133Z,7.85
2022-07-30T04:59:37.316Z,12.48
2022-07-30T05:02:07.266Z,7.05
2022-07-30T05:04:35.772Z,7.05
2022-07-30T05:07:04.194Z,9.02
2022-07-30T05:09:31.598Z,7.00
2022-07-30T05:11:59.458Z,6.00
2022-07-30T05:14:26.858Z,5.43
2022-07-30T05:16:54.868Z,6.35
2022-07-30T05:19:22.691Z,10.18
2022-07-30T05:21:49.284Z,5.78
2022-07-30T05:24:15.948Z,6.20
2022-07-30T05:26:43.381Z,6.13
2022-07-30T05:29:09.930Z,7.10
2022-07-30T05:31:46.366Z,7.60
2022-07-30T05:34:13.401Z,8.70
2022-07-30T05:36:40.040Z,6.63
2022-07-30T05:39:06.666Z,11.75
2022-07-30T05:41:33.445Z,8.15
2022-07-30T05:44:00.891Z,7.30
2022-07-30T05:46:28.168Z,6.75
2022-07-30T05:48:54.802Z,10.80
2022-07-30T05:51:22.260Z,7.90
2022-07-30T05:53:49.210Z,8.57
2022-07-30T05:56:15.803Z,8.30
2022-07-30T05:58:42.402Z,10.95
2022-07-30T06:01:09.236Z,10.27
2022-07-30T06:03:35.844Z,7.75
2022-07-30T06:06:07.182Z,8.85
2022-07-30T06:08:34.211Z,6.90
2022-07-30T06:11:00.821Z,14.02
2022-07-30T06:13:27.411Z,11.73
2022-07-30T06:15:54.076Z,7.78
2022-07-30T06:18:23.192Z,12.80
2022-07-30T06:20:52.141Z,10.10
2022-07-30T06:23:19.178Z,7.65
2022-07-30T06:25:45.918Z,6.70
2022-07-30T06:28:35.161Z,13.18
2022-07-30T06:30:59.230Z,7.13
2022-07-30T06:33:25.816Z,7.10
2022-07-30T06:35:52.419Z,6.30
2022-07-30T06:38:18.951Z,6.95
2022-07-30T06:40:45.532Z,5.75
2022-07-30T06:43:12.516Z,8.23
2022-07-30T06:45:39.685Z,8.07
2022-07-30T06:48:06.362Z,10.35
2022-07-30T06:50:33.005Z,9.70
2022-07-30T06:52:59.517Z,6.40
2022-07-30T06:55:26.036Z,9.40
2022-07-30T06:57:52.629Z,8.88
2022-07-30T07:00:19.454Z,8.38
2022-07-30T07:02:46.246Z,7.50
2022-07-30T07:05:13.243Z,7.80
2022-07-30T07:07:44.410Z,10.32
2022-07-30T07:10:18.920Z,15.18
2022-07-30T07:12:45.687Z,10.68
2022-07-30T07:15:12.556Z,13.38
2022-07-30T07:17:40.421Z,10.13
2022-07-30T07:20:07.446Z,8.63
2022-07-30T07:22:34.019Z,11.52
2022-07-30T07:25:00.740Z,7.57
2022-07-30T07:27:27.394Z,10.52
2022-07-30T07:30:01.438Z,7.90
2022-07-30T07:32:32.695Z,7.55
2022-07-30T07:34:59.288Z,6.63
2022-07-30T07:37:25.810Z,10.77
2022-07-30T07:39:52.401Z,9.18
2022-07-30T07:42:18.996Z,8.07
2022-07-30T07:44:45.565Z,5.75
2022-07-30T07:47:12.084Z,5.82
2022-07-30T07:49:38.608Z,5.25
2022-07-30T07:52:05.628Z,6.55
2022-07-30T07:54:32.246Z,12.73
2022-07-30T07:56:59.448Z,5.50
2022-07-30T07:59:39.681Z,9.13
2022-07-30T08:02:08.100Z,7.00
2022-07-30T08:04:35.421Z,6.75
2022-07-30T08:07:02.709Z,6.03
2022-07-30T08:09:43.654Z,6.30
2022-07-30T08:12:14.492Z,6.57
2022-07-30T08:14:41.186Z,5.32
2022-07-30T08:17:08.390Z,7.65
2022-07-30T08:19:35.561Z,5.18
2022-07-30T08:22:02.099Z,5.63
2022-07-30T08:24:28.633Z,5.00
2022-07-30T08:26:55.205Z,5.50
2022-07-30T08:29:21.744Z,8.15
2022-07-30T08:31:48.427Z,6.18
2022-07-30T08:34:15.152Z,5.47
2022-07-30T08:36:42.025Z,7.32
2022-07-30T08:39:08.792Z,6.13
2022-07-30T08:41:36.708Z,5.30
2022-07-30T08:44:05.365Z,5.88
2022-07-30T08:46:36.212Z,5.65
2022-07-30T08:49:06.478Z,5.57
2022-07-30T08:51:38.194Z,6.35
2022-07-30T08:54:06.200Z,8.57
2022-07-30T08:56:34.104Z,5.50
2022-07-30T08:59:01.704Z,8.55
2022-07-30T09:01:28.629Z,6.65
2022-07-30T09:03:55.354Z,7.20
2022-07-30T09:06:22.114Z,7.57
2022-07-30T09:08:48.833Z,6.97
2022-07-30T09:11:15.424Z,7.18
2022-07-30T09:13:44.454Z,5.55
2022-07-30T09:16:23.522Z,5.40
2022-07-30T09:18:51.046Z,5.18
2022-07-30T09:21:21.556Z,8.05
2022-07-30T09:24:10.594Z,8.63
2022-07-30T09:27:12.449Z,5.90
2022-07-30T09:29:39.172Z,5.30
2022-07-30T09:32:08.064Z,7.57
2022-07-30T09:37:04.808Z,6.32
2022-07-30T09:39:33.880Z,5.45
2022-07-30T09:42:02.139Z,12.15
2022-07-30T09:44:29.978Z,5.32
2022-07-30T09:46:58.454Z,9.30
2022-07-30T09:49:29.352Z,5.43
2022-07-30T09:51:57.536Z,5.00
2022-07-30T09:54:51.357Z,5.72
2022-07-30T09:57:25.973Z,6.57
2022-07-30T10:00:10.518Z,7.28
2022-07-30T10:02:37.652Z,7.63
2022-07-30T10:07:48.292Z,8.27
2022-07-30T10:10:15.718Z,7.63
2022-07-30T10:12:45.984Z,7.10
2022-07-30T10:15:13.959Z,5.03
2022-07-30T10:17:41.818Z,4.47
2022-07-30T10:20:09.199Z,7.22
2022-07-30T10:22:36.298Z,7.22
2022-07-30T10:25:05.261Z,8.57
2022-07-30T10:27:32.330Z,8.85
2022-07-30T10:29:59.601Z,5.68
2022-07-30T10:32:32.324Z,6.55
2022-07-30T10:35:00.316Z,5.70
2022-07-30T10:37:28.778Z,5.30
2022-07-30T10:40:03.029Z,6.13
2022-07-30T10:42:59.275Z,9.32
2022-07-30T10:45:46.331Z,8.93
2022-07-30T10:48:13.955Z,7.03
2022-07-30T10:50:57.656Z,8.68
2022-07-30T10:53:42.897Z,17.27
2022-07-30T10:56:25.540Z,10.52
2022-07-30T10:59:07.946Z,8.35
2022-07-30T11:02:08.220Z,7.70
2022-07-30T11:04:35.083Z,7.43
2022-07-30T11:07:24.023Z,8.23
2022-07-30T11:10:04.896Z,9.80
2022-07-30T11:12:41.487Z,6.53
2022-07-30T11:15:18.311Z,10.60
2022-07-30T11:18:13.172Z,10.10
2022-07-30T11:20:41.105Z,8.15
2022-07-30T11:23:18.948Z,9.60
2022-07-30T11:25:51.880Z,6.65
2022-07-30T11:28:42.613Z,10.38
2022-07-30T11:31:56.590Z,10.60
2022-07-30T11:34:19.962Z,13.70
2022-07-30T11:37:18.518Z,7.47
2022-07-30T11:39:58.101Z,11.60
2022-07-30T11:42:35.808Z,16.02
2022-07-30T11:45:18.103Z,15.32
2022-07-30T11:47:45.509Z,11.52
2022-07-30T11:50:25.500Z,6.53
2022-07-30T11:52:57.810Z,6.57
2022-07-30T11:55:25.594Z,6.70
2022-07-30T11:57:52.621Z,6.90
2022-07-30T12:00:19.707Z,8.38
2022-07-30T12:02:47.037Z,6.28
2022-07-30T12:05:13.659Z,7.63
2022-07-30T12:07:40.221Z,5.47
2022-07-30T12:10:17.642Z,9.60
2022-07-30T12:13:07.875Z,6.15
2022-07-30T12:15:36.104Z,9.18
2022-07-30T12:18:25.250Z,9.53
2022-07-30T12:21:01.240Z,8.07
2022-07-30T12:23:29.449Z,7.07
2022-07-30T12:25:56.635Z,9.38
2022-07-30T12:28:27.517Z,9.85
2022-07-30T12:30:55.850Z,8.02
2022-07-30T12:33:23.251Z,12.38
2022-07-30T12:35:52.314Z,7.82
2022-07-30T12:38:20.148Z,12.38
2022-07-30T12:41:03.573Z,6.18
2022-07-30T12:43:46.678Z,8.73
2022-07-30T12:46:16.818Z,8.48
2022-07-30T12:48:50.446Z,11.88
2022-07-30T12:51:17.202Z,10.30
2022-07-30T12:53:43.877Z,8.52
2022-07-30T12:56:15.590Z,11.50
2022-07-30T12:58:42.268Z,8.07
2022-07-30T13:01:12.773Z,10.85
2022-07-30T13:03:40.190Z,8.82
2022-07-30T13:06:14.852Z,7.97
2022-07-30T13:08:51.206Z,10.75
2022-07-30T13:11:19.562Z,9.30
2022-07-30T13:13:47.002Z,9.38
2022-07-30T13:16:14.215Z,7.50
2022-07-30T13:18:40.988Z,11.90
2022-07-30T13:21:09.318Z,8.52
2022-07-30T13:23:40.431Z,8.93
2022-07-30T13:26:08.477Z,7.35
2022-07-30T13:28:35.507Z,7.77
2022-07-30T13:31:02.480Z,7.43
2022-07-30T13:33:29.541Z,8.32
2022-07-30T13:35:56.526Z,8.38
2022-07-30T13:38:23.495Z,9.60
2022-07-30T13:40:50.543Z,7.60
2022-07-30T13:43:17.182Z,9.10
2022-07-30T13:45:44.044Z,9.20
2022-07-30T13:48:10.995Z,9.20
2022-07-30T13:50:37.590Z,9.82
2022-07-30T13:53:05.421Z,12.05
2022-07-30T13:55:32.317Z,8.18
2022-07-30T13:57:59.826Z,10.50
2022-07-30T14:00:32.334Z,10.75
2022-07-30T14:03:00.739Z,14.48
2022-07-30T14:05:27.644Z,20.17
2022-07-30T14:07:54.315Z,19.77
2022-07-30T14:10:24.227Z,23.33
2022-07-30T14:12:55.780Z,18.48
2022-07-30T14:15:24.302Z,14.93
2022-07-30T14:17:56.064Z,9.27
2022-07-30T14:20:23.127Z,9.73
2022-07-30T14:22:49.807Z,8.65
2022-07-30T14:25:16.593Z,13.93
2022-07-30T14:27:43.592Z,8.77
2022-07-30T14:30:11.438Z,10.02
2022-07-30T14:32:39.038Z,13.43
2022-07-30T14:35:09.942Z,9.00
2022-07-30T14:37:38.161Z,7.00
2022-07-30T14:40:11.997Z,6.70
2022-07-30T14:42:42.696Z,8.55
2022-07-30T14:45:10.527Z,7.20
2022-07-30T14:47:38.044Z,8.82
2022-07-30T14:50:05.482Z,9.07
2022-07-30T14:52:35.020Z,11.82
2022-07-30T14:55:03.813Z,9.10
2022-07-30T14:57:30.599Z,9.18
2022-07-30T14:59:57.134Z,8.65
2022-07-30T15:02:23.798Z,14.18
2022-07-30T15:04:50.762Z,11.32
2022-07-30T15:07:17.905Z,12.93
2022-07-30T15:09:45.321Z,11.27
2022-07-30T15:12:13.083Z,11.48
2022-07-30T15:14:48.372Z,15.55
2022-07-30T15:17:15.090Z,10.02
2022-07-30T15:19:49.202Z,15.75
2022-07-30T15:22:19.123Z,14.52
2022-07-30T15:24:45.742Z,13.27
2022-07-30T15:27:12.338Z,14.00
2022-07-30T15:29:38.890Z,10.77
2022-07-30T15:32:05.987Z,12.57
2022-07-30T15:34:34.604Z,9.65
2022-07-30T15:37:02.758Z,8.93
2022-07-30T15:39:32.268Z,7.15
2022-07-30T15:41:59.847Z,11.20
2022-07-30T15:44:26.841Z,11.38
2022-07-30T15:46:53.642Z,12.02
2022-07-30T15:49:20.346Z,9.70
2022-07-30T15:51:49.727Z,10.75
2022-07-30T15:54:22.346Z,11.35
2022-07-30T15:56:50.902Z,9.85
2022-07-30T15:59:17.788Z,10.93
2022-07-30T16:01:44.598Z,8.63
2022-07-30T16:04:19.773Z,11.15
2022-07-30T16:06:49.529Z,9.45
2022-07-30T16:09:16.775Z,10.10
2022-07-30T16:11:43.486Z,18.27
2022-07-30T16:14:10.490Z,10.80
2022-07-30T16:16:37.079Z,8.65
2022-07-30T16:19:03.737Z,26.02
2022-07-30T16:21:30.426Z,12.40
2022-07-30T16:23:57.232Z,18.90
2022-07-30T16:26:23.910Z,12.38
2022-07-30T16:28:50.886Z,10.55
2022-07-30T16:31:17.692Z,12.57
2022-07-30T16:33:44.318Z,8.68
2022-07-30T16:36:11.192Z,10.07
2022-07-30T16:38:39.066Z,8.10
2022-07-30T16:41:06.978Z,14.18
2022-07-30T16:43:34.951Z,28.48
2022-07-30T16:46:01.546Z,42.83
2022-07-30T16:48:28.423Z,27.90
2022-07-30T16:50:55.012Z,20.67
2022-07-30T16:53:21.715Z,17.75
2022-07-30T16:55:48.328Z,12.55
2022-07-30T16:58:14.942Z,20.33
2022-07-30T17:00:41.947Z,35.35
2022-07-30T17:03:09.276Z,21.15
2022-07-30T17:05:38.424Z,14.65
2022-07-30T17:08:11.918Z,13.13
2022-07-30T17:10:38.500Z,13.70
2022-07-30T17:13:07.756Z,15.27
2022-07-30T17:15:34.397Z,13.30
2022-07-30T17:18:02.003Z,18.27
2022-07-30T17:20:29.775Z,14.20
2022-07-30T17:22:56.641Z,19.02
2022-07-30T17:25:27.432Z,10.82
2022-07-30T17:27:58.573Z,13.68
2022-07-30T17:30:26.575Z,18.00
2022-07-30T17:32:53.445Z,10.80
2022-07-30T17:35:20.362Z,10.18
2022-07-30T17:37:46.933Z,15.40
2022-07-30T17:40:29.080Z,12.48
2022-07-30T17:43:03.792Z,14.25
2022-07-30T17:45:32.357Z,13.05
2022-07-30T17:47:58.949Z,12.50
2022-07-30T17:50:25.539Z,13.00
2022-07-30T17:52:52.344Z,11.27
2022-07-30T17:55:18.945Z,12.38
2022-07-30T17:57:45.470Z,11.43
2022-07-30T18:00:12.482Z,10.95
2022-07-30T18:02:39.096Z,18.58
2022-07-30T18:05:05.952Z,13.15
2022-07-30T18:07:32.528Z,10.68
2022-07-30T18:09:59.065Z,12.35
2022-07-30T18:12:25.617Z,11.10
2022-07-30T18:14:52.519Z,15.07
2022-07-30T18:17:25.529Z,10.00
2022-07-30T18:19:52.171Z,6.50
2022-07-30T18:22:29.154Z,11.65
2022-07-30T18:24:56.204Z,8.00
2022-07-30T18:27:22.707Z,8.75
2022-07-30T18:29:49.242Z,12.48
2022-07-30T18:32:15.852Z,15.77
2022-07-30T18:34:42.390Z,11.65
2022-07-30T18:37:08.973Z,8.35
2022-07-30T18:39:35.568Z,7.97
2022-07-30T18:42:03.630Z,13.80
2022-07-30T18:44:30.886Z,8.25
2022-07-30T18:46:57.416Z,10.85
2022-07-30T18:49:36.552Z,7.25
2022-07-30T18:52:04.788Z,8.20
2022-07-30T18:54:31.633Z,8.93
2022-07-30T18:56:58.263Z,18.15
2022-07-30T18:59:24.880Z,14.00
2022-07-30T19:01:51.494Z,13.00
2022-07-30T19:04:18.023Z,10.52
2022-07-30T19:06:47.669Z,14.43
2022-07-30T19:09:17.731Z,9.00
2022-07-30T19:11:46.071Z,11.40
2022-07-30T19:14:14.161Z,8.07
2022-07-30T19:16:42.463Z,9.93
2022-07-30T19:19:10.301Z,11.17
2022-07-30T19:21:36.857Z,9.85
2022-07-30T19:24:03.895Z,8.45
2022-07-30T19:26:30.643Z,9.27
2022-07-30T19:28:57.490Z,11.30
2022-07-30T19:31:24.527Z,14.77
2022-07-30T19:33:51.124Z,17.30
2022-07-30T19:36:20.751Z,16.13
2022-07-30T19:38:48.919Z,14.10
2022-07-30T19:41:16.386Z,12.23
2022-07-30T19:43:43.121Z,20.40
2022-07-30T19:46:22.489Z,9.48
2022-07-30T19:48:50.904Z,9.43
2022-07-30T19:51:20.546Z,16.80
2022-07-30T19:53:47.965Z,31.17
2022-07-30T19:56:14.605Z,25.88
2022-07-30T19:58:41.271Z,25.17
2022-07-30T20:01:08.354Z,30.35
2022-07-30T20:03:35.974Z,19.75
2022-07-30T20:06:07.200Z,28.10
2022-07-30T20:08:35.435Z,17.48
2022-07-30T20:11:02.468Z,13.87
2022-07-30T20:13:44.914Z,8.88
2022-07-30T20:16:16.364Z,14.45
2022-07-30T20:18:47.312Z,12.43
2022-07-30T20:21:16.162Z,13.25
2022-07-30T20:23:44.615Z,9.70
2022-07-30T20:26:14.271Z,8.13
2022-07-30T20:28:42.627Z,7.13
2022-07-30T20:31:09.213Z,9.10
2022-07-30T20:33:38.092Z,10.15
2022-07-30T20:36:06.337Z,9.95
2022-07-30T20:38:39.031Z,10.30
2022-07-30T20:41:10.281Z,10.25
2022-07-30T20:43:46.031Z,14.25
2022-07-30T20:46:18.302Z,10.00
2022-07-30T20:48:45.851Z,8.02
2022-07-30T20:51:12.450Z,11.75
2022-07-30T20:53:40.204Z,11.07
2022-07-30T20:56:06.736Z,8.55
2022-07-30T20:58:34.417Z,11.45
2022-07-30T21:01:00.991Z,12.73
2022-07-30T21:03:31.719Z,9.57
2022-07-30T21:05:58.844Z,9.65
2022-07-30T21:08:26.545Z,15.63
2022-07-30T21:10:53.461Z,5.82
2022-07-30T21:13:22.370Z,11.30
2022-07-30T21:16:02.943Z,11.93
2022-07-30T21:18:31.251Z,10.98
2022-07-30T21:20:57.991Z,8.20
2022-07-30T21:23:24.813Z,11.52
2022-07-30T21:26:01.419Z,7.28
2022-07-30T21:28:30.241Z,6.13
2022-07-30T21:31:02.681Z,7.40
2022-07-30T21:33:31.711Z,16.05
2022-07-30T21:35:59.028Z,6.78
2022-07-30T21:38:26.734Z,5.53
2022-07-30T21:40:53.870Z,6.10
2022-07-30T21:43:29.567Z,12.50
2022-07-30T21:45:57.688Z,6.20
2022-07-30T21:48:25.471Z,3.20
2022-07-30T21:50:54.093Z,4.80
2022-07-30T21:53:29.832Z,5.03
2022-07-30T21:56:07.491Z,7.60
2022-07-30T21:58:34.034Z,7.45
2022-07-30T22:01:18.131Z,3.72
2022-07-30T22:04:04.538Z,5.45
2022-07-30T22:06:39.905Z,6.65
2022-07-30T22:09:18.342Z,6.85
2022-07-30T22:11:53.405Z,3.33
2022-07-30T22:14:19.927Z,8.63
2022-07-30T22:16:46.865Z,5.05
2022-07-30T22:19:15.275Z,4.40
2022-07-30T22:21:46.638Z,4.32
2022-07-30T22:24:29.489Z,4.22
2022-07-30T22:27:01.049Z,4.57
2022-07-30T22:29:34.463Z,3.13
2022-07-30T22:32:02.595Z,6.68
2022-07-30T22:34:29.457Z,4.03
2022-07-30T22:36:57.427Z,2.88
2022-07-30T22:39:50.261Z,4.30
2022-07-30T22:44:57.759Z,2.55
2022-07-30T22:47:51.069Z,1.80
2022-07-30T22:50:11.856Z,3.28
2022-07-30T22:52:39.900Z,1.88
2022-07-30T22:55:11.778Z,1.08
2022-07-30T22:57:38.445Z,1.33
2022-07-30T23:00:11.005Z,4.15
2022-07-30T23:02:42.839Z,12.00
2022-07-30T23:05:10.187Z,1.58
2022-07-30T23:07:39.539Z,1.60
2022-07-30T23:10:12.344Z,1.58
2022-07-30T23:12:32.308Z,4.57
2022-07-30T23:12:47.509Z,5.18
2022-07-30T23:15:14.883Z,1.88
2022-07-30T23:17:41.855Z,2.85
2022-07-30T23:20:11.038Z,2.88
2022-07-30T23:22:38.166Z,5.95
2022-07-30T23:25:10.472Z,2.00
2022-07-30T23:27:37.665Z,2.80
2022-07-30T23:30:04.746Z,2.00
2022-07-30T23:32:32.131Z,1.42
2022-07-30T23:34:58.905Z,3.17
2022-07-30T23:37:25.752Z,2.28
2022-07-30T23:39:53.034Z,6.65
2022-07-30T23:42:19.604Z,3.83
2022-07-30T23:44:46.194Z,1.55
2022-07-30T23:47:12.719Z,1.42
2022-07-30T23:49:39.295Z,3.63
2022-07-30T23:52:05.880Z,2.72
2022-07-30T23:54:32.608Z,1.77
2022-07-30T23:56:59.145Z,2.00
2022-07-30T23:59:36.829Z,3.03
